Time;durP1;ratioP1;P1;durP2;ratioP2;P2;SDS_P1;SDS_P2;PMS_P1;PMS_P2;Temp;Humidity;BMP_temperature;BMP_pressure;BME280_temperature;BME280_humidity;BME280_pressure;Samples;Min_cycle;Max_cycle;Signal;HPM_P1;HPM_P2
2021/12/09 00:01:01;;;;;;;18.85;11.15;;;;;;;0.56;90.77;94910.59;10282578;28;97787;-66
2021/12/09 00:06:06;;;;;;;20.30;11.93;;;;;;;0.46;91.08;94914.00;10285257;28;97267;-66
2021/12/09 00:11:09;;;;;;;18.27;11.23;;;;;;;0.49;91.15;94906.88;10284522;28;98141;-66
2021/12/09 00:16:14;;;;;;;17.25;10.80;;;;;;;0.58;91.01;94910.50;10281878;28;98035;-66
2021/12/09 00:21:17;;;;;;;17.40;10.43;;;;;;;0.57;91.61;94919.16;10283685;28;99295;-65
2021/12/09 00:26:20;;;;;;;20.42;11.25;;;;;;;0.56;91.35;94925.22;10285360;28;99253;-66
2021/12/09 00:31:24;;;;;;;19.08;11.13;;;;;;;0.38;90.99;94935.97;10287831;28;96938;-66
2021/12/09 00:36:31;;;;;;;18.97;11.87;;;;;;;0.36;91.40;94940.44;10285453;28;97739;-66
2021/12/09 00:41:34;;;;;;;18.35;11.70;;;;;;;0.39;90.77;94937.63;10285658;28;97279;-66
2021/12/09 00:46:39;;;;;;;20.95;11.55;;;;;;;0.46;90.47;94937.13;10285794;28;98163;-67
2021/12/09 00:51:42;;;;;;;17.50;10.57;;;;;;;0.40;91.00;94946.94;10290228;28;98295;-66
2021/12/09 00:56:45;;;;;;;20.98;12.50;;;;;;;0.25;91.06;94955.81;10290377;28;97135;-66
2021/12/09 01:01:49;;;;;;;11.88;7.60;;;;;;;0.27;90.78;94956.53;10285970;28;99018;-66
2021/12/09 01:06:52;;;;;;;11.47;7.43;;;;;;;0.37;90.73;94949.75;10287868;28;97602;-66
2021/12/09 01:11:55;;;;;;;19.27;9.38;;;;;;;0.38;90.60;94966.00;10290445;28;97674;-66
2021/12/09 01:16:59;;;;;;;14.40;8.85;;;;;;;0.37;90.23;94965.16;10288007;28;98528;-66
2021/12/09 01:22:03;;;;;;;12.32;7.72;;;;;;;0.39;90.29;94971.03;10290369;28;99181;-66
2021/12/09 01:27:06;;;;;;;13.75;7.93;;;;;;;0.32;91.04;94977.53;10281405;28;98093;-66
2021/12/09 01:32:13;;;;;;;14.95;8.93;;;;;;;0.21;90.23;94980.13;10284292;28;97695;-66
2021/12/09 01:37:16;;;;;;;11.57;7.63;;;;;;;0.05;90.90;94981.25;10283291;28;97527;-66
2021/12/09 01:42:20;;;;;;;9.65;6.13;;;;;;;0.16;90.83;94982.22;10285982;28;97420;-66
2021/12/09 01:47:24;;;;;;;10.15;6.50;;;;;;;0.19;91.22;94984.56;10281447;28;99425;-66
2021/12/09 01:52:28;;;;;;;11.90;6.60;;;;;;;0.28;90.98;94994.13;10284724;28;98341;-66
2021/12/09 01:57:31;;;;;;;11.18;6.60;;;;;;;0.32;90.38;94997.28;10286352;28;98450;-66
2021/12/09 02:02:35;;;;;;;9.45;5.57;;;;;;;0.32;90.10;94998.09;10283546;28;98627;-66
2021/12/09 02:07:59;;;;;;;6.28;4.15;;;;;;;0.29;90.79;94998.34;10290227;28;98609;-66
2021/12/09 02:13:01;;;;;;;9.25;6.00;;;;;;;0.25;90.55;95002.06;10295218;28;96883;-66
2021/12/09 02:18:07;;;;;;;11.82;7.13;;;;;;;0.18;90.58;95022.25;10295160;28;97410;-66
2021/12/09 02:23:16;;;;;;;11.70;7.55;;;;;;;0.11;90.98;95025.38;10298155;28;97109;-66
2021/12/09 02:28:19;;;;;;;12.50;7.93;;;;;;;0.14;90.01;95043.94;10287122;28;97857;-66
2021/12/09 02:33:22;;;;;;;9.90;6.13;;;;;;;0.24;91.34;95041.53;10288950;28;96967;-66
2021/12/09 02:38:26;;;;;;;10.73;6.57;;;;;;;0.28;91.39;95042.94;10294092;28;96829;-66
2021/12/09 02:43:30;;;;;;;12.02;7.10;;;;;;;0.14;90.49;95056.78;10283883;28;97199;-66
2021/12/09 02:48:34;;;;;;;10.85;7.13;;;;;;;0.12;90.89;95032.19;10289689;28;97289;-66
2021/12/09 02:53:39;;;;;;;13.48;7.90;;;;;;;0.12;91.11;95037.31;10281519;28;97480;-65
2021/12/09 02:58:42;;;;;;;12.87;8.13;;;;;;;-0.01;90.80;95040.78;10281521;28;97208;-66
2021/12/09 03:03:50;;;;;;;15.30;7.13;;;;;;;-0.04;91.53;95035.88;10286671;28;96774;-66
2021/12/09 03:08:55;;;;;;;12.27;7.57;;;;;;;-0.12;91.18;95048.44;10289163;28;97007;-66
2021/12/09 03:13:58;;;;;;;13.35;8.48;;;;;;;-0.18;91.22;95033.47;10282418;28;98057;-66
2021/12/09 03:19:04;;;;;;;13.32;7.72;;;;;;;-0.11;91.75;95026.97;10286433;28;98598;-66
2021/12/09 03:24:11;;;;;;;15.45;8.52;;;;;;;-0.05;91.23;95049.63;10281995;28;98592;-67
2021/12/09 03:29:15;;;;;;;14.82;8.55;;;;;;;-0.04;90.80;95061.53;10279913;28;98246;-66
2021/12/09 03:34:24;;;;;;;13.05;7.03;;;;;;;-0.09;91.33;95055.94;10283687;28;98516;-66
2021/12/09 03:39:32;;;;;;;10.68;6.80;;;;;;;-0.04;91.26;95083.81;10281264;28;96838;-67
2021/12/09 03:44:35;;;;;;;15.90;8.32;;;;;;;-0.02;91.41;95094.81;10282303;28;97681;-66
2021/12/09 03:49:41;;;;;;;15.88;8.93;;;;;;;-0.02;91.23;95084.53;10281385;28;96910;-65
2021/12/09 03:54:46;;;;;;;16.77;9.63;;;;;;;-0.03;91.23;95099.09;10282201;28;99182;-66
2021/12/09 03:59:49;;;;;;;13.33;8.20;;;;;;;-0.02;91.13;95095.63;10293480;28;97168;-66
2021/12/09 04:04:51;;;;;;;14.73;7.95;;;;;;;-0.13;91.05;95110.97;10290864;28;98284;-66
2021/12/09 04:09:56;;;;;;;11.57;5.75;;;;;;;-0.15;91.20;95102.56;10290688;28;97387;-66
2021/12/09 04:14:59;;;;;;;10.25;6.47;;;;;;;-0.10;91.44;95105.63;10284892;28;96953;-66
2021/12/09 04:20:01;;;;;;;10.52;6.45;;;;;;;0.03;91.75;95106.38;10288022;28;98388;-66
2021/12/09 04:25:07;;;;;;;12.77;7.32;;;;;;;0.11;91.06;95112.69;10294401;28;98914;-66
2021/12/09 04:30:10;;;;;;;11.70;6.22;;;;;;;0.03;90.65;95133.81;10290859;28;98662;-67
2021/12/09 04:35:14;;;;;;;8.60;5.55;;;;;;;0.03;91.18;95136.38;10283013;28;97664;-66
2021/12/09 04:40:18;;;;;;;6.70;4.35;;;;;;;0.11;90.92;95131.50;10290969;28;99318;-66
2021/12/09 04:45:21;;;;;;;6.38;3.75;;;;;;;0.10;90.42;95141.88;10286822;28;98475;-66
2021/12/09 04:50:25;;;;;;;6.93;3.85;;;;;;;0.04;90.78;95151.66;10288328;28;98457;-66
2021/12/09 04:55:29;;;;;;;6.72;4.00;;;;;;;0.02;90.91;95156.09;10286734;28;96943;-66
2021/12/09 05:00:32;;;;;;;6.68;3.33;;;;;;;-0.04;91.02;95156.53;10291837;28;98673;-66
2021/12/09 05:05:38;;;;;;;7.97;3.60;;;;;;;0.09;91.09;95171.88;10288297;28;100494;-66
2021/12/09 05:10:55;;;;;;;;;;;;;;;0.12;91.46;95165.72;10286585;28;98699;-66
2021/12/09 05:16:00;;;;;;;4.72;2.00;;;;;;;0.16;90.99;95182.53;10289336;28;99425;-66
2021/12/09 05:21:04;;;;;;;3.40;2.53;;;;;;;0.13;91.38;95183.56;10287575;28;97624;-66
2021/12/09 05:26:09;;;;;;;4.95;2.40;;;;;;;0.05;90.97;95186.69;10282951;28;98687;-66
2021/12/09 05:36:41;;;;;;;3.40;2.03;;;;;;;-0.07;91.59;95192.69;10287851;28;97785;-66
2021/12/09 05:41:46;;;;;;;3.53;2.33;;;;;;;0.00;91.46;95199.03;10285846;28;99027;-66
2021/12/09 05:46:49;;;;;;;5.78;2.22;;;;;;;-0.00;91.36;95203.34;10287162;28;97637;-66
2021/12/09 05:51:53;;;;;;;7.05;3.08;;;;;;;-0.10;91.55;95203.16;10291273;28;97872;-66
2021/12/09 05:56:58;;;;;;;7.85;3.33;;;;;;;-0.15;91.35;95215.50;10285572;28;99214;-66
2021/12/09 06:02:01;;;;;;;8.20;3.67;;;;;;;-0.16;91.24;95224.16;10284694;28;96824;-66
2021/12/09 06:07:04;;;;;;;6.47;3.67;;;;;;;-0.18;91.23;95220.84;10292830;28;97001;-66
2021/12/09 06:12:10;;;;;;;7.25;4.68;;;;;;;-0.20;91.24;95238.09;10295479;28;96896;-66
2021/12/09 06:17:13;;;;;;;;;;;;;;;-0.17;91.78;95231.00;10286388;28;98824;-66
2021/12/09 06:22:15;;;;;;;6.68;3.72;;;;;;;-0.12;90.88;95240.97;10289025;28;98682;-66
2021/12/09 06:27:20;;;;;;;5.40;3.15;;;;;;;-0.09;90.86;95245.06;10284577;28;99344;-66
2021/12/09 06:32:23;;;;;;;4.57;2.70;;;;;;;-0.01;91.75;95256.47;10283505;28;97818;-66
2021/12/09 06:37:25;;;;;;;6.97;3.17;;;;;;;0.04;90.53;95262.06;10288124;28;98496;-66
2021/12/09 06:42:30;;;;;;;5.50;3.45;;;;;;;0.02;90.78;95269.06;10287267;28;98078;-66
2021/12/09 06:47:33;;;;;;;6.00;3.90;;;;;;;-0.06;90.32;95273.09;10282524;28;98483;-66
2021/12/09 06:52:36;;;;;;;7.93;4.78;;;;;;;-0.08;90.61;95274.94;10282049;28;98905;-66
2021/12/09 06:57:43;;;;;;;6.43;3.85;;;;;;;-0.07;90.32;95284.31;10288490;28;99123;-66
2021/12/09 07:02:46;;;;;;;5.47;3.20;;;;;;;-0.08;90.40;95287.78;10283073;28;97816;-66
2021/12/09 07:07:50;;;;;;;7.22;3.33;;;;;;;-0.10;90.09;95290.47;10284294;28;98346;-67
2021/12/09 07:12:54;;;;;;;6.05;3.47;;;;;;;-0.11;90.29;95296.53;10285143;28;96927;-65
2021/12/09 07:17:57;;;;;;;6.73;4.10;;;;;;;-0.10;90.67;95310.19;10285113;28;98428;-66
2021/12/09 07:23:00;;;;;;;5.28;3.53;;;;;;;-0.11;90.75;95311.94;10280438;28;99038;-66
2021/12/09 07:28:05;;;;;;;5.95;4.20;;;;;;;-0.03;90.74;95319.09;10286143;28;98471;-66
2021/12/09 07:33:08;;;;;;;7.60;5.00;;;;;;;-0.01;90.67;95330.91;10299141;28;97697;-66
2021/12/09 07:38:12;;;;;;;5.13;3.97;;;;;;;0.03;90.67;95332.34;10297647;28;96868;-66
2021/12/09 07:43:16;;;;;;;5.05;3.38;;;;;;;-0.01;90.52;95345.50;10299914;28;100381;-67
2021/12/09 07:48:19;;;;;;;10.25;5.00;;;;;;;0.07;90.81;95348.34;10311453;28;96908;-66
2021/12/09 07:53:22;;;;;;;4.80;3.40;;;;;;;0.13;90.88;95344.53;10296674;28;96745;-66
2021/12/09 07:58:28;;;;;;;6.65;4.82;;;;;;;0.20;90.95;95358.59;10296286;28;96835;-66
2021/12/09 08:03:33;;;;;;;6.60;4.07;;;;;;;0.18;91.00;95361.25;10290607;28;97585;-66
2021/12/09 08:08:36;;;;;;;5.45;3.35;;;;;;;0.32;90.37;95364.63;10299342;28;98662;-66
2021/12/09 08:13:40;;;;;;;6.03;3.80;;;;;;;0.45;90.65;95368.00;10306692;28;96878;-66
2021/12/09 08:18:53;;;;;;;7.33;3.30;;;;;;;0.52;91.03;95366.63;10294081;28;99580;-66
2021/12/09 08:23:56;;;;;;;3.92;2.15;;;;;;;0.40;90.71;95376.03;10300312;28;99710;-67
2021/12/09 08:29:04;;;;;;;4.78;2.50;;;;;;;0.52;90.98;95370.97;10307578;28;97912;-66
2021/12/09 08:34:07;;;;;;;6.35;4.00;;;;;;;0.57;90.70;95372.28;10311145;28;97636;-66
2021/12/09 08:39:25;;;;;;;11.75;5.85;;;;;;;0.58;90.71;95384.22;10305318;28;97342;-66
2021/12/09 08:44:29;;;;;;;6.75;4.18;;;;;;;0.58;89.96;95391.91;10309059;28;97736;-66
2021/12/09 08:49:32;;;;;;;3.35;2.17;;;;;;;0.61;91.40;95391.69;10300492;28;100897;-66
2021/12/09 08:54:35;;;;;;;5.65;2.40;;;;;;;0.68;91.18;95397.22;10307460;28;97999;-67
2021/12/09 08:59:39;;;;;;;3.95;2.53;;;;;;;0.86;92.17;95407.13;10312788;28;96929;-67
2021/12/09 09:04:42;;;;;;;3.60;1.67;;;;;;;0.96;91.69;95392.69;10320604;28;97168;-66
2021/12/09 09:09:45;;;;;;;1.95;1.40;;;;;;;1.11;91.94;95406.22;10309336;28;96783;-66
2021/12/09 09:14:49;;;;;;;3.40;1.90;;;;;;;1.30;92.25;95406.53;10300658;28;96846;-66
2021/12/09 09:19:52;;;;;;;5.10;1.60;;;;;;;1.49;91.45;95410.34;10303184;28;96849;-66
2021/12/09 09:24:55;;;;;;;3.53;1.60;;;;;;;1.60;91.08;95410.34;10314752;28;97432;-66
2021/12/09 09:30:00;;;;;;;1.75;1.10;;;;;;;1.67;91.81;95406.38;10294277;28;98301;-66
2021/12/09 09:35:03;;;;;;;1.37;1.00;;;;;;;1.62;91.19;95415.38;10300557;28;97822;-67
2021/12/09 09:40:10;;;;;;;1.58;0.80;;;;;;;1.80;91.58;95419.19;10317412;28;98173;-66
2021/12/09 09:45:16;;;;;;;1.38;0.80;;;;;;;1.92;91.54;95418.25;10299286;28;98725;-66
2021/12/09 09:50:19;;;;;;;1.00;0.80;;;;;;;2.12;91.01;95413.34;10297934;28;96989;-67
2021/12/09 09:55:23;;;;;;;1.35;0.88;;;;;;;2.08;91.32;95417.13;10293474;28;98532;-66
2021/12/09 10:00:28;;;;;;;1.27;1.00;;;;;;;2.06;91.72;95406.09;10293240;28;97225;-66
2021/12/09 10:05:36;;;;;;;2.57;0.90;;;;;;;2.08;90.88;95411.97;10307808;28;96928;-66
2021/12/09 10:10:40;;;;;;;1.05;0.70;;;;;;;2.11;90.81;95415.13;10308614;28;96808;-67
2021/12/09 10:15:48;;;;;;;0.95;0.50;;;;;;;2.17;90.37;95410.44;10304166;28;97123;-67
2021/12/09 10:20:55;;;;;;;1.75;1.02;;;;;;;2.19;90.06;95411.94;10289695;28;98247;-67
2021/12/09 10:26:26;;;;;;;3.40;1.02;;;;;;;2.29;89.78;95400.00;10291126;28;97071;-67
2021/12/09 10:31:35;;;;;;;2.15;1.02;;;;;;;2.31;90.11;95394.75;10171298;28;98474;-66
2021/12/09 10:36:44;;;;;;;2.28;1.27;;;;;;;2.31;89.48;95398.13;10168615;28;97006;-67
2021/12/09 10:41:48;;;;;;;2.40;1.30;;;;;;;2.44;89.92;95390.28;10164064;28;96920;-67
2021/12/09 10:46:56;;;;;;;3.38;1.60;;;;;;;2.59;90.30;95385.69;10176080;28;96946;-67
2021/12/09 10:52:00;;;;;;;2.83;1.60;;;;;;;2.73;89.41;95391.53;10161258;28;97028;-67
2021/12/09 10:57:26;;;;;;;1.98;1.17;;;;;;;2.76;88.55;95393.88;10164593;28;98565;-67
2021/12/09 11:02:31;;;;;;;2.38;1.20;;;;;;;2.85;89.18;95398.28;10170331;28;98213;-67
2021/12/09 11:07:34;;;;;;;1.95;0.90;;;;;;;2.85;89.26;95387.97;10299562;28;96860;-67
2021/12/09 11:12:37;;;;;;;1.73;0.60;;;;;;;3.05;89.88;95389.78;10311331;28;96944;-67
2021/12/09 11:17:46;;;;;;;1.63;1.05;;;;;;;3.27;89.26;95388.06;10294904;28;98595;-67
2021/12/09 11:22:49;;;;;;;2.63;0.88;;;;;;;3.27;88.74;95406.13;10289330;28;96824;-67
2021/12/09 11:28:10;;;;;;;1.88;0.80;;;;;;;3.42;88.57;95394.56;10299999;28;96885;-67
2021/12/09 11:33:32;;;;;;;1.73;0.63;;;;;;;3.48;88.96;95397.59;10288710;28;98560;-67
2021/12/09 11:38:52;;;;;;;1.80;0.85;;;;;;;3.68;88.85;95401.97;10293117;28;97041;-66
2021/12/09 11:43:55;;;;;;;1.98;0.63;;;;;;;3.77;88.80;95392.63;10300705;28;97005;-67
2021/12/09 11:48:59;;;;;;;1.45;0.70;;;;;;;3.81;88.23;95379.34;10313264;28;97879;-67
2021/12/09 11:54:04;;;;;;;2.30;0.93;;;;;;;3.83;86.48;95382.63;10295497;28;97455;-67
2021/12/09 12:15:53;;;;;;;3.00;1.77;;;;;;;3.69;85.90;95358.84;10290509;28;97042;-66
2021/12/09 12:21:23;;;;;;;2.45;1.30;;;;;;;3.53;85.48;95354.16;10305854;28;98014;-67
2021/12/09 12:26:46;;;;;;;2.75;1.42;;;;;;;3.45;84.99;95349.63;10306841;28;96787;-67
2021/12/09 12:32:22;;;;;;;4.10;2.60;;;;;;;3.21;84.76;95365.34;10296601;28;98741;-68
2021/12/09 12:37:47;;;;;;;4.57;2.30;;;;;;;3.23;85.62;95371.19;10309022;28;100944;-67
2021/12/09 12:42:56;;;;;;;5.93;2.60;;;;;;;3.10;85.32;95357.63;10313056;28;97936;-68
2021/12/09 12:48:15;;;;;;;5.40;3.00;;;;;;;3.19;85.13;95356.91;10304302;28;96853;-68
2021/12/09 12:53:34;;;;;;;4.82;3.17;;;;;;;3.36;85.15;95351.19;10292030;28;98835;-67
2021/12/09 12:58:37;;;;;;;6.32;2.88;;;;;;;3.44;84.92;95342.81;10305512;28;97850;-68
2021/12/09 13:03:46;;;;;;;3.60;2.50;;;;;;;3.61;85.36;95344.00;10294663;28;97998;-68
2021/12/09 13:09:10;;;;;;;4.68;2.53;;;;;;;3.58;85.55;95352.81;10287040;28;99370;-67
2021/12/09 13:14:21;;;;;;;3.80;2.60;;;;;;;3.67;85.11;95351.22;10285706;28;98704;-68
2021/12/09 13:19:38;;;;;;;3.30;2.15;;;;;;;3.73;85.59;95329.25;10289062;28;102124;-66
2021/12/09 13:24:48;;;;;;;4.72;2.47;;;;;;;3.89;85.94;95323.63;10287916;28;98473;-67
2021/12/09 13:30:16;;;;;;;3.72;2.35;;;;;;;3.96;85.61;95316.97;10287326;28;96859;-67
2021/12/09 13:35:29;;;;;;;3.35;2.00;;;;;;;4.01;85.07;95307.88;10302223;28;97165;-67
2021/12/09 13:45:49;;;;;;;3.10;2.05;;;;;;;4.11;84.02;95310.53;10318249;28;99019;-67
2021/12/09 13:46:11;;;;;;;2.83;1.70;;;;;;;4.33;84.40;95319.84;10310609;28;98526;-67
2021/12/09 13:51:30;;;;;;;5.70;2.38;;;;;;;4.51;85.37;95307.09;10292798;28;97225;-67
2021/12/09 13:56:34;;;;;;;3.08;1.85;;;;;;;4.58;85.30;95308.19;10308446;28;96901;-67
2021/12/09 14:01:37;;;;;;;2.85;2.00;;;;;;;4.65;84.61;95310.25;10292942;28;101133;-67
2021/12/09 14:06:47;;;;;;;1.83;1.30;;;;;;;4.61;84.10;95308.84;10307581;28;97245;-68
2021/12/09 14:11:52;;;;;;;3.25;1.70;;;;;;;4.58;84.62;95310.78;10313718;28;97508;-67
2021/12/09 14:16:58;;;;;;;4.35;2.55;;;;;;;4.58;84.66;95313.34;10294014;28;96852;-68
2021/12/09 14:22:02;;;;;;;4.13;2.35;;;;;;;4.61;84.23;95314.03;10292105;28;97262;-67
2021/12/09 14:27:11;;;;;;;2.60;1.90;;;;;;;4.52;82.88;95308.69;10303078;28;96800;-67
2021/12/09 14:32:14;;;;;;;3.53;1.63;;;;;;;4.59;83.60;95311.56;10300352;28;98437;-67
2021/12/09 14:37:19;;;;;;;4.10;2.08;;;;;;;4.62;83.22;95313.09;10323382;28;96866;-67
2021/12/09 14:42:24;;;;;;;4.88;2.65;;;;;;;4.52;83.03;95313.88;10316191;28;99398;-67
2021/12/09 14:47:28;;;;;;;4.90;2.80;;;;;;;4.44;83.09;95315.50;10297588;28;96751;-67
2021/12/09 14:52:33;;;;;;;4.57;2.47;;;;;;;4.34;83.54;95323.25;10306393;28;98391;-67
2021/12/09 14:57:52;;;;;;;3.00;1.55;;;;;;;4.07;82.72;95324.63;10295461;28;97560;-67
2021/12/09 15:02:55;;;;;;;3.40;1.63;;;;;;;4.00;83.28;95318.34;10289942;28;98191;-68
2021/12/09 15:08:04;;;;;;;3.80;2.10;;;;;;;3.91;83.12;95324.31;10293400;28;101024;-67
2021/12/09 15:13:12;;;;;;;4.15;2.00;;;;;;;3.79;83.49;95326.97;10289903;28;97634;-67
2021/12/09 15:18:15;;;;;;;3.33;2.08;;;;;;;3.53;83.36;95323.16;10291625;28;97161;-67
2021/12/09 15:23:31;;;;;;;3.13;1.85;;;;;;;3.34;83.14;95339.34;10313770;28;101177;-67
2021/12/09 15:28:36;;;;;;;;;;;;;;;3.17;83.12;95341.53;10291775;28;97200;-67
2021/12/09 15:33:42;;;;;;;6.53;3.03;;;;;;;2.85;83.39;95344.13;10308040;28;96883;-67
2021/12/09 15:38:47;;;;;;;7.05;2.78;;;;;;;2.46;82.66;95359.25;10301085;28;97932;-66
2021/12/09 15:43:53;;;;;;;6.03;3.42;;;;;;;2.13;82.55;95368.63;10292107;28;97917;-67
2021/12/09 15:48:56;;;;;;;7.05;2.83;;;;;;;1.88;82.05;95369.66;10290360;28;97450;-67
2021/12/09 15:54:04;;;;;;;5.95;3.10;;;;;;;1.75;82.76;95380.88;10305419;28;96887;-67
2021/12/09 15:59:10;;;;;;;8.85;3.95;;;;;;;1.53;82.59;95386.00;10298734;28;99256;-66
2021/12/09 16:04:13;;;;;;;3.53;1.90;;;;;;;1.25;83.02;95387.22;10299732;28;96861;-67
2021/12/09 16:09:19;;;;;;;2.22;1.17;;;;;;;1.04;82.83;95394.72;10319043;28;96886;-67
2021/12/09 16:14:25;;;;;;;3.75;1.77;;;;;;;0.90;82.85;95398.28;10307799;28;98124;-67
2021/12/09 16:19:36;;;;;;;3.90;1.60;;;;;;;0.75;82.75;95401.00;10300521;28;96743;-67
2021/12/09 16:24:39;;;;;;;3.10;1.67;;;;;;;0.68;83.21;95404.94;10296686;28;100986;-67
2021/12/09 16:29:43;;;;;;;6.13;1.80;;;;;;;0.62;83.35;95410.50;10292947;28;97815;-67
2021/12/09 16:34:47;;;;;;;4.18;1.85;;;;;;;0.20;83.37;95403.09;10298840;28;98753;-66
2021/12/09 16:39:51;;;;;;;4.13;2.50;;;;;;;0.19;83.92;95392.94;10306064;28;104128;-67
2021/12/09 16:44:56;;;;;;;6.97;3.55;;;;;;;0.17;82.87;95387.91;10291346;28;99014;-67
2021/12/09 16:50:00;;;;;;;7.22;2.45;;;;;;;0.14;82.82;95384.72;10295467;28;97631;-66
2021/12/09 16:55:08;;;;;;;4.20;1.85;;;;;;;-0.07;82.96;95392.13;10320918;28;97110;-67
2021/12/09 17:00:16;;;;;;;9.65;5.13;;;;;;;-0.09;83.27;95397.38;10298978;28;98401;-67
2021/12/09 17:05:20;;;;;;;7.22;4.43;;;;;;;-0.21;83.11;95403.34;10304746;28;96928;-66
2021/12/09 17:10:25;;;;;;;8.95;4.75;;;;;;;-0.23;83.51;95400.03;10298271;28;98137;-67
2021/12/09 17:15:29;;;;;;;8.90;5.05;;;;;;;-0.29;83.22;95398.69;10242760;28;98138;-67
2021/12/09 17:20:32;;;;;;;8.68;4.63;;;;;;;-0.51;83.27;95391.63;10249036;28;97627;-66
2021/12/09 17:25:37;;;;;;;9.55;5.20;;;;;;;-0.66;83.66;95395.19;10237072;28;99115;-66
2021/12/09 17:30:47;;;;;;;7.53;3.80;;;;;;;-0.77;83.45;95389.00;10243100;28;97377;-67
2021/12/09 17:35:50;;;;;;;9.07;4.22;;;;;;;-0.90;83.97;95391.53;10243285;28;97665;-67
2021/12/09 17:40:54;;;;;;;6.50;2.88;;;;;;;-1.00;84.11;95376.84;10239240;28;97454;-67
2021/12/09 17:45:58;;;;;;;7.20;3.70;;;;;;;-1.08;84.19;95378.16;10243148;28;97383;-67
2021/12/09 17:51:03;;;;;;;11.18;4.50;;;;;;;-1.29;84.57;95371.84;10244681;28;97405;-67
2021/12/09 17:56:08;;;;;;;9.53;3.87;;;;;;;-1.35;84.79;95369.66;10241138;28;98047;-67
2021/12/09 18:01:13;;;;;;;8.50;3.65;;;;;;;-1.43;84.60;95370.16;10249766;28;99136;-67
2021/12/09 18:06:18;;;;;;;7.30;4.10;;;;;;;-1.51;84.66;95365.47;10242875;28;97901;-66
2021/12/09 18:11:24;;;;;;;7.28;4.50;;;;;;;-1.54;84.50;95375.09;10250585;28;97369;-66
2021/12/09 18:16:33;;;;;;;7.80;4.10;;;;;;;-1.62;84.21;95385.84;10284902;28;97598;-66
2021/12/09 18:21:36;;;;;;;7.97;4.07;;;;;;;-1.69;84.45;95379.41;10282629;28;97883;-66
2021/12/09 18:26:39;;;;;;;12.52;5.65;;;;;;;-1.72;84.42;95367.63;10283711;28;96920;-66
2021/12/09 18:31:43;;;;;;;9.57;4.70;;;;;;;-1.73;84.80;95367.72;10291304;28;97387;-66
2021/12/09 18:36:54;;;;;;;9.15;4.70;;;;;;;-1.78;84.93;95369.75;10281090;28;98299;-66
2021/12/09 18:41:57;;;;;;;13.48;5.25;;;;;;;-1.96;85.61;95367.41;10283587;28;97294;-66
2021/12/09 18:47:01;;;;;;;6.40;2.25;;;;;;;-2.00;85.20;95360.81;10286204;28;96950;-66
2021/12/09 18:52:05;;;;;;;15.45;7.68;;;;;;;-1.97;85.42;95375.97;10294014;28;96819;-66
2021/12/09 18:57:08;;;;;;;18.55;7.93;;;;;;;-2.04;84.58;95379.81;10286819;28;98645;-66
2021/12/09 19:02:12;;;;;;;13.50;7.88;;;;;;;-2.07;85.13;95362.13;10278789;28;98575;-66
2021/12/09 19:07:16;;;;;;;10.30;5.45;;;;;;;-2.10;84.93;95368.22;10275550;28;96855;-67
2021/12/09 19:12:19;;;;;;;11.75;4.32;;;;;;;-2.18;85.76;95372.16;10275935;28;98445;-66
2021/12/09 19:17:32;;;;;;;8.30;2.50;;;;;;;-2.30;85.16;95361.75;10276564;28;97026;-67
2021/12/09 19:22:35;;;;;;;5.05;2.92;;;;;;;-2.31;86.11;95361.84;10283762;28;98773;-66
2021/12/09 19:27:39;;;;;;;7.00;2.83;;;;;;;-2.32;86.30;95371.22;10282383;28;97889;-66
2021/12/09 19:32:44;;;;;;;9.40;3.25;;;;;;;-2.37;85.40;95350.22;10278433;28;98379;-66
2021/12/09 19:37:47;;;;;;;;;;;;;;;-2.37;85.98;95357.06;10283641;28;97396;-66
2021/12/09 19:42:51;;;;;;;11.20;3.47;;;;;;;-2.38;85.06;95365.69;10286615;28;97306;-66
2021/12/09 19:47:55;;;;;;;15.82;10.00;;;;;;;-2.44;85.85;95369.41;10278122;28;97318;-66
2021/12/09 19:52:59;;;;;;;22.00;14.07;;;;;;;-2.50;85.12;95354.44;10274976;28;98653;-66
2021/12/09 19:58:01;;;;;;;31.45;19.60;;;;;;;-2.49;86.02;95343.28;10282239;28;97636;-66
2021/12/09 20:03:08;;;;;;;16.38;9.98;;;;;;;-2.57;85.91;95340.38;10279168;28;97365;-65
2021/12/09 20:08:11;;;;;;;9.25;3.92;;;;;;;-2.70;85.79;95338.50;10285075;28;97418;-66
2021/12/09 20:13:14;;;;;;;8.38;4.13;;;;;;;-2.82;86.69;95329.00;10284900;28;97876;-66
2021/12/09 20:18:18;;;;;;;14.07;5.85;;;;;;;-2.85;86.04;95324.88;10285607;28;97608;-65
2021/12/09 20:23:21;;;;;;;11.07;5.55;;;;;;;-2.90;86.82;95338.84;10283281;28;97666;-66
2021/12/09 20:28:24;;;;;;;16.73;8.65;;;;;;;-2.94;87.22;95329.69;10286586;28;96838;-66
2021/12/09 20:33:28;;;;;;;11.30;6.05;;;;;;;-2.95;85.86;95320.41;10288992;28;97154;-65
2021/12/09 20:38:31;;;;;;;11.23;6.18;;;;;;;-2.95;87.08;95305.06;10289367;28;96752;-65
2021/12/09 20:43:35;;;;;;;13.85;5.93;;;;;;;-3.02;87.11;95297.75;10291250;28;98401;-66
2021/12/09 20:48:39;;;;;;;5.63;2.47;;;;;;;-3.11;87.10;95295.72;10297444;28;97384;-66
2021/12/09 20:53:51;;;;;;;9.65;2.60;;;;;;;-3.06;87.21;95293.72;10288328;28;98765;-66
2021/12/09 20:58:54;;;;;;;14.27;4.82;;;;;;;-3.08;86.08;95295.56;10284928;28;96896;-66
2021/12/09 21:03:59;;;;;;;7.60;2.30;;;;;;;-3.03;86.92;95280.78;10291254;28;98543;-66
2021/12/09 21:09:02;;;;;;;7.97;2.75;;;;;;;-2.95;86.93;95274.41;10291642;28;96853;-66
2021/12/09 21:14:07;;;;;;;22.00;7.60;;;;;;;-3.02;85.86;95258.59;10283031;28;98459;-66
2021/12/09 21:19:13;;;;;;;8.75;3.72;;;;;;;-3.14;86.17;95254.22;10295234;28;98894;-65
2021/12/09 21:24:17;;;;;;;6.82;3.50;;;;;;;-3.26;86.76;95240.41;10292990;28;97013;-66
2021/12/09 21:29:21;;;;;;;12.23;5.13;;;;;;;-3.32;86.31;95235.63;10290944;28;99046;-66
2021/12/09 21:34:31;;;;;;;12.13;6.80;;;;;;;-3.38;87.06;95218.94;10287296;28;100916;-66
2021/12/09 21:39:34;;;;;;;11.32;3.60;;;;;;;-3.40;85.89;95213.91;10291404;28;96839;-66
2021/12/09 21:44:37;;;;;;;6.55;2.50;;;;;;;-3.40;86.92;95198.59;10292209;28;97303;-66
2021/12/09 21:49:42;;;;;;;5.80;3.08;;;;;;;-3.42;87.32;95184.28;10287746;28;97642;-66
2021/12/09 21:54:45;;;;;;;13.40;4.03;;;;;;;-3.43;86.73;95168.13;10286475;28;96964;-65
2021/12/09 21:59:48;;;;;;;8.13;3.33;;;;;;;-3.41;86.79;95165.50;10278931;28;99317;-66
2021/12/09 22:04:53;;;;;;;9.30;3.60;;;;;;;-3.50;86.89;95154.09;10285822;28;96816;-66
2021/12/09 22:09:56;;;;;;;9.00;5.30;;;;;;;-3.49;86.09;95142.97;10291994;28;97987;-66
2021/12/09 22:15:00;;;;;;;15.43;7.35;;;;;;;-3.51;86.79;95138.84;10306317;28;96956;-65
2021/12/09 22:20:05;;;;;;;16.65;7.45;;;;;;;-3.52;86.34;95121.91;10284360;28;98059;-66
2021/12/09 22:25:09;;;;;;;13.68;8.02;;;;;;;-3.47;86.58;95122.47;10279854;28;98011;-67
2021/12/09 22:30:12;;;;;;;14.45;7.90;;;;;;;-3.49;87.53;95103.84;10293634;28;96922;-66
2021/12/09 22:35:17;;;;;;;10.50;6.35;;;;;;;-3.51;87.13;95109.06;10282372;28;97782;-65
2021/12/09 22:40:20;;;;;;;8.77;4.90;;;;;;;-3.54;86.04;95104.94;10295351;28;96981;-66
2021/12/09 22:45:22;;;;;;;13.77;6.53;;;;;;;-3.57;86.83;95078.75;10288520;28;97028;-66
2021/12/09 22:50:27;;;;;;;21.70;11.38;;;;;;;-3.61;86.84;95057.72;10281278;28;97202;-66
2021/12/09 22:55:31;;;;;;;23.45;13.82;;;;;;;-3.61;86.23;95047.50;10283405;28;97048;-65
2021/12/09 23:00:42;;;;;;;47.83;22.75;;;;;;;-3.75;87.38;95035.56;10284271;28;98986;-66
2021/12/09 23:05:50;;;;;;;17.98;9.63;;;;;;;-3.80;87.51;95027.34;10281330;28;98916;-65
2021/12/09 23:10:55;;;;;;;15.15;7.75;;;;;;;-3.74;86.81;95016.78;10279743;28;98864;-66
2021/12/09 23:15:58;;;;;;;10.25;5.63;;;;;;;-3.67;87.15;95017.25;10282625;28;97572;-66
2021/12/09 23:21:02;;;;;;;14.48;7.53;;;;;;;-3.55;87.49;94992.69;10280491;28;98679;-66
2021/12/09 23:26:05;;;;;;;11.70;6.18;;;;;;;-3.61;87.32;94970.09;10283799;28;98580;-66
2021/12/09 23:31:11;;;;;;;15.80;8.48;;;;;;;-3.53;87.87;94962.81;10284929;28;98567;-66
2021/12/09 23:36:15;;;;;;;19.27;10.80;;;;;;;-3.57;86.94;94946.03;10285439;28;97217;-66
2021/12/09 23:41:18;;;;;;;21.07;11.37;;;;;;;-3.55;87.67;94945.03;10281278;28;98824;-66
2021/12/09 23:46:21;;;;;;;22.25;12.30;;;;;;;-3.55;87.05;94944.19;10284035;28;97031;-66
2021/12/09 23:51:26;;;;;;;19.83;10.65;;;;;;;-3.50;87.33;94942.16;10288570;28;98520;-66
2021/12/09 23:56:30;;;;;;;26.35;12.20;;;;;;;-3.52;87.09;94917.66;10281327;28;99215;-65
